Medvezegorsk, Russia
Current Conditions -  °F | °C
As of 4:00 AM on Saturday 29 Nov 2014 (Local Time) from ULPB Reporting Station
NA  
Wind Chill: 19°   Ceiling: NA
Heat Index: 25°   Visibility: 6mi
Dew Point: 23°   Wind: 4mph
Humidity: 93%   Direction: 230°SW
Pressure: 30.59"   Gusts: NA
Location:  62.92°N, 34.43°E
Report Text: ULPB 290100Z AUTO 23002MPS 170V280 9999 ////// M04/M05 Q1036
Loading
Personal Weather Stations






























Interactive Weather Map New forecast layout! Learn more

10-Day Weather Forecast

Advertisements
Track Severe Weather on mobile